createdAt,value
2022-12-22T00:01:32.198Z,47.30
2022-12-22T00:03:48.261Z,34.53
2022-12-22T00:06:03.769Z,34.45
2022-12-22T00:08:19.553Z,26.42
2022-12-22T00:10:35.280Z,20.52
2022-12-22T00:12:51.823Z,27.95
2022-12-22T00:15:08.966Z,30.88
2022-12-22T00:17:43.979Z,37.95
2022-12-22T00:19:59.796Z,39.13
2022-12-22T00:22:19.599Z,33.45
2022-12-22T00:24:34.988Z,40.28
2022-12-22T00:26:52.596Z,44.42
2022-12-22T00:29:08.371Z,30.45
2022-12-22T00:31:25.330Z,29.83
2022-12-22T00:33:41.733Z,28.02
2022-12-22T00:35:57.095Z,31.02
2022-12-22T00:38:12.498Z,27.55
2022-12-22T00:40:35.809Z,39.15
2022-12-22T00:42:51.557Z,28.38
2022-12-22T00:45:07.463Z,21.65
2022-12-22T00:47:24.890Z,28.77
2022-12-22T00:49:42.951Z,28.67
2022-12-22T00:51:58.651Z,23.55
2022-12-22T00:54:14.363Z,26.85
2022-12-22T00:56:29.568Z,25.17
2022-12-22T00:58:45.611Z,40.40
2022-12-22T01:01:01.219Z,26.55
2022-12-22T01:03:18.573Z,25.55
2022-12-22T01:05:34.396Z,32.58
2022-12-22T01:07:50.354Z,29.80
2022-12-22T01:10:09.395Z,29.48
2022-12-22T01:12:29.937Z,45.25
2022-12-22T01:14:45.252Z,37.25
2022-12-22T01:17:00.626Z,38.42
2022-12-22T01:19:17.372Z,22.23
2022-12-22T01:21:35.095Z,27.27
2022-12-22T01:23:50.788Z,26.58
2022-12-22T01:26:06.576Z,26.27
2022-12-22T01:28:22.861Z,32.55
2022-12-22T01:30:38.256Z,39.10
2022-12-22T01:32:54.060Z,14.15
2022-12-22T01:35:11.419Z,19.23
2022-12-22T01:37:26.864Z,26.77
2022-12-22T01:39:42.266Z,19.38
2022-12-22T01:41:58.356Z,30.05
2022-12-22T01:44:13.862Z,13.63
2022-12-22T01:46:40.378Z,16.42
2022-12-22T01:48:56.123Z,12.50
2022-12-22T01:51:13.103Z,22.35
2022-12-22T01:53:33.354Z,14.55
2022-12-22T01:55:49.297Z,23.70
2022-12-22T01:58:04.752Z,19.05
2022-12-22T02:00:20.831Z,21.05
2022-12-22T02:02:38.167Z,18.25
2022-12-22T02:04:58.897Z,23.25
2022-12-22T02:07:23.253Z,12.60
2022-12-22T02:09:50.509Z,24.05
2022-12-22T02:12:17.372Z,29.13
2022-12-22T02:14:46.519Z,16.60
2022-12-22T02:17:10.047Z,24.60
2022-12-22T02:19:34.711Z,10.57
2022-12-22T02:21:58.784Z,11.50
2022-12-22T02:24:37.153Z,6.07
2022-12-22T02:26:57.296Z,10.15
2022-12-22T02:29:13.310Z,3.45
2022-12-22T02:31:29.210Z,6.82
2022-12-22T02:33:44.972Z,6.50
2022-12-22T02:36:06.511Z,2.75
2022-12-22T02:38:33.969Z,8.75
2022-12-22T02:40:56.012Z,15.05
2022-12-22T02:43:25.138Z,6.50
2022-12-22T02:45:50.133Z,5.32
2022-12-22T02:48:10.672Z,4.22
2022-12-22T02:50:37.114Z,5.13
2022-12-22T02:52:55.898Z,10.85
2022-12-22T02:55:11.756Z,12.30
2022-12-22T02:57:27.702Z,7.22
2022-12-22T02:59:44.892Z,10.90
2022-12-22T03:02:03.421Z,8.27
2022-12-22T03:04:19.227Z,9.75
2022-12-22T03:06:35.071Z,13.65
2022-12-22T03:08:50.507Z,9.82
2022-12-22T03:11:06.271Z,10.80
2022-12-22T03:13:22.243Z,5.35
2022-12-22T03:15:39.267Z,8.65
2022-12-22T03:17:54.666Z,7.35
2022-12-22T03:20:10.115Z,18.90
2022-12-22T03:22:25.659Z,6.00
2022-12-22T03:24:41.559Z,5.25
2022-12-22T03:26:40.049Z,18.50
2022-12-22T03:28:38.225Z,6.10
2022-12-22T03:30:38.525Z,11.30
2022-12-22T03:32:36.677Z,12.57
2022-12-22T03:34:34.976Z,19.70
2022-12-22T03:36:33.173Z,21.90
2022-12-22T03:38:31.287Z,12.70
2022-12-22T03:40:29.610Z,5.85
2022-12-22T03:42:45.220Z,5.82
2022-12-22T03:45:00.687Z,6.07
2022-12-22T03:47:00.583Z,8.52
2022-12-22T03:49:14.264Z,10.85
2022-12-22T03:51:12.594Z,3.38
2022-12-22T03:53:10.765Z,8.07
2022-12-22T03:55:09.645Z,4.95
2022-12-22T03:57:07.960Z,13.05
2022-12-22T03:59:06.383Z,10.57
2022-12-22T04:01:09.288Z,12.27
2022-12-22T04:03:09.163Z,4.20
2022-12-22T04:05:08.454Z,7.65
2022-12-22T04:07:06.872Z,7.13
2022-12-22T04:09:05.955Z,11.20
2022-12-22T04:11:21.835Z,5.35
2022-12-22T04:13:20.148Z,7.15
2022-12-22T04:15:18.536Z,6.00
2022-12-22T04:17:16.781Z,10.73
2022-12-22T04:19:16.908Z,9.77
2022-12-22T04:21:15.187Z,7.07
2022-12-22T04:23:13.337Z,5.97
2022-12-22T04:25:11.768Z,7.32
2022-12-22T04:27:09.911Z,12.43
2022-12-22T04:29:08.201Z,10.65
2022-12-22T04:31:06.676Z,9.52
2022-12-22T04:33:05.023Z,9.55
2022-12-22T04:35:05.680Z,6.93
2022-12-22T04:37:12.962Z,4.85
2022-12-22T04:39:15.280Z,6.40
2022-12-22T04:41:13.437Z,17.40
2022-12-22T04:43:11.617Z,6.10
2022-12-22T04:45:10.721Z,10.57
2022-12-22T04:47:08.982Z,8.20
2022-12-22T04:49:07.172Z,5.80
2022-12-22T04:51:07.584Z,14.13
2022-12-22T04:53:04.837Z,16.05
2022-12-22T04:55:03.061Z,6.45
2022-12-22T04:57:01.664Z,16.17
2022-12-22T04:58:59.783Z,20.90
2022-12-22T05:00:58.434Z,17.75
2022-12-22T05:02:56.896Z,7.13
2022-12-22T05:04:55.033Z,16.13
2022-12-22T05:06:54.756Z,9.80
2022-12-22T05:08:52.995Z,10.35
2022-12-22T05:10:51.228Z,9.98
2022-12-22T05:12:57.089Z,9.77
2022-12-22T05:14:55.286Z,9.88
2022-12-22T05:16:53.711Z,13.77
2022-12-22T05:18:51.895Z,19.80
2022-12-22T05:20:50.068Z,7.60
2022-12-22T05:22:49.968Z,8.82
2022-12-22T05:24:48.143Z,4.75
2022-12-22T05:26:46.482Z,46.58
2022-12-22T05:28:46.319Z,5.82
2022-12-22T05:30:44.616Z,12.40
2022-12-22T05:32:42.820Z,13.18
2022-12-22T05:34:41.033Z,22.20
2022-12-22T05:36:39.351Z,11.38
2022-12-22T05:38:39.098Z,11.90
2022-12-22T05:40:37.426Z,10.02
2022-12-22T05:42:38.224Z,7.00
2022-12-22T05:44:36.533Z,8.63
2022-12-22T05:46:34.878Z,16.02
2022-12-22T05:48:37.969Z,8.75
2022-12-22T05:50:37.246Z,6.30
2022-12-22T05:52:35.388Z,6.57
2022-12-22T05:54:34.950Z,8.18
2022-12-22T05:56:33.342Z,8.98
2022-12-22T05:58:31.504Z,7.85
2022-12-22T06:00:30.695Z,11.70
2022-12-22T06:02:31.691Z,6.15
2022-12-22T06:04:30.076Z,11.50
2022-12-22T06:06:28.691Z,7.88
2022-12-22T06:08:27.881Z,13.98
2022-12-22T06:10:27.458Z,8.02
2022-12-22T06:12:25.785Z,9.90
2022-12-22T06:14:24.197Z,6.03
2022-12-22T06:16:22.530Z,9.57
2022-12-22T06:18:21.013Z,6.30
2022-12-22T06:20:19.488Z,14.30
2022-12-22T06:22:17.839Z,13.05
2022-12-22T06:24:15.934Z,9.85
2022-12-22T06:26:15.589Z,25.00
2022-12-22T06:28:13.773Z,16.05
2022-12-22T06:30:12.700Z,13.07
2022-12-22T06:32:11.016Z,13.30
2022-12-22T06:34:10.444Z,12.07
2022-12-22T06:36:09.952Z,15.20
2022-12-22T06:38:08.272Z,13.10
2022-12-22T06:40:08.071Z,8.20
2022-12-22T06:42:25.258Z,8.35
2022-12-22T06:44:23.395Z,6.72
2022-12-22T06:46:21.495Z,14.32
2022-12-22T06:48:20.565Z,16.63
2022-12-22T06:50:18.817Z,12.20
2022-12-22T06:52:17.043Z,22.80
2022-12-22T06:54:16.712Z,16.48
2022-12-22T06:56:16.467Z,11.38
2022-12-22T06:58:16.121Z,11.70
2022-12-22T07:00:15.191Z,13.00
2022-12-22T07:02:13.745Z,19.38
2022-12-22T07:04:17.163Z,11.63
2022-12-22T07:06:15.566Z,19.02
2022-12-22T07:08:13.789Z,16.10
2022-12-22T07:10:12.725Z,14.48
2022-12-22T07:12:11.095Z,11.27
2022-12-22T07:14:10.649Z,17.05
2022-12-22T07:16:10.675Z,8.60
2022-12-22T07:18:09.044Z,30.90
2022-12-22T07:20:08.481Z,16.88
2022-12-22T07:22:06.666Z,18.48
2022-12-22T07:24:05.199Z,12.82
2022-12-22T07:26:03.617Z,20.75
2022-12-22T07:28:02.002Z,26.70
2022-12-22T07:30:01.645Z,20.00
2022-12-22T07:31:59.863Z,17.80
2022-12-22T07:33:58.156Z,13.57
2022-12-22T07:36:07.574Z,10.70
2022-12-22T07:38:05.869Z,12.73
2022-12-22T07:40:04.086Z,15.30
2022-12-22T07:42:19.366Z,12.63
2022-12-22T07:44:17.994Z,11.90
2022-12-22T07:46:17.614Z,12.40
2022-12-22T07:48:29.733Z,13.55
2022-12-22T07:50:28.840Z,19.58
2022-12-22T07:52:27.088Z,14.30
2022-12-22T07:54:25.688Z,24.00
2022-12-22T07:56:23.845Z,31.27
2022-12-22T07:58:22.079Z,21.92
2022-12-22T08:00:21.395Z,19.35
2022-12-22T08:02:20.985Z,14.20
2022-12-22T08:04:19.468Z,33.70
2022-12-22T08:06:17.716Z,21.90
2022-12-22T08:08:16.000Z,17.60
2022-12-22T08:10:14.256Z,37.67
2022-12-22T08:12:12.345Z,39.53
2022-12-22T08:14:10.781Z,24.25
2022-12-22T08:16:12.166Z,44.70
2022-12-22T08:18:11.716Z,36.80
2022-12-22T08:20:10.752Z,27.88
2022-12-22T08:22:09.350Z,59.20
2022-12-22T08:24:08.429Z,31.33
2022-12-22T08:26:12.581Z,33.95
2022-12-22T08:28:10.832Z,17.80
2022-12-22T08:30:10.897Z,21.95
2022-12-22T08:32:09.191Z,20.83
2022-12-22T08:34:13.555Z,25.40
2022-12-22T08:36:13.134Z,17.88
2022-12-22T08:38:12.552Z,20.58
2022-12-22T08:40:15.224Z,31.63
2022-12-22T08:42:16.774Z,27.52
2022-12-22T08:44:15.174Z,32.20
2022-12-22T08:46:13.599Z,28.77
2022-12-22T08:48:12.230Z,36.58
2022-12-22T08:50:12.495Z,41.90
2022-12-22T08:52:17.760Z,28.58
2022-12-22T08:54:17.537Z,32.28
2022-12-22T08:56:15.848Z,49.35
2022-12-22T08:58:13.915Z,32.03
2022-12-22T09:00:13.572Z,31.58
2022-12-22T09:02:12.019Z,38.00
2022-12-22T09:04:10.279Z,33.25
2022-12-22T09:06:10.133Z,32.28
2022-12-22T09:08:08.334Z,33.50
2022-12-22T09:10:08.268Z,41.78
2022-12-22T09:12:07.259Z,29.77
2022-12-22T09:14:06.157Z,34.30
2022-12-22T09:16:06.629Z,43.08
2022-12-22T09:18:05.062Z,37.47
2022-12-22T09:20:04.788Z,39.35
2022-12-22T09:22:05.086Z,42.60
2022-12-22T09:24:04.611Z,39.22
2022-12-22T09:26:08.656Z,38.30
2022-12-22T09:28:08.635Z,28.85
2022-12-22T09:30:08.442Z,33.67
2022-12-22T09:32:07.180Z,40.88
2022-12-22T09:34:05.503Z,39.33
2022-12-22T09:36:07.735Z,29.75
2022-12-22T09:38:08.844Z,31.20
2022-12-22T09:40:08.652Z,33.15
2022-12-22T09:42:14.582Z,31.33
2022-12-22T09:44:19.348Z,34.92
2022-12-22T09:46:22.604Z,47.08
2022-12-22T09:48:21.076Z,36.63
2022-12-22T09:50:21.516Z,40.10
2022-12-22T09:52:31.828Z,34.05
2022-12-22T09:54:31.753Z,41.97
2022-12-22T09:56:31.531Z,40.60
2022-12-22T09:58:32.042Z,33.80
2022-12-22T10:00:30.623Z,37.50
2022-12-22T10:02:35.931Z,42.85
2022-12-22T10:04:55.510Z,33.10
2022-12-22T10:07:01.834Z,29.58
2022-12-22T10:09:14.782Z,41.40
2022-12-22T10:11:25.133Z,31.65
2022-12-22T10:13:23.641Z,50.70
2022-12-22T10:15:22.342Z,36.58
2022-12-22T10:17:24.053Z,37.95
2022-12-22T10:19:22.576Z,24.83
2022-12-22T10:21:24.530Z,31.80
2022-12-22T10:23:29.310Z,28.65
2022-12-22T10:26:00.382Z,31.77
2022-12-22T10:27:57.809Z,32.88
2022-12-22T10:29:55.994Z,43.08
2022-12-22T10:32:00.367Z,29.98
2022-12-22T10:34:11.545Z,30.33
2022-12-22T10:36:10.590Z,22.00
2022-12-22T10:38:21.173Z,32.08
2022-12-22T10:40:22.658Z,44.47
2022-12-22T10:42:20.953Z,31.13
2022-12-22T10:44:23.819Z,26.08
2022-12-22T10:46:32.684Z,29.40
2022-12-22T10:48:33.549Z,33.88
2022-12-22T10:50:31.834Z,32.47
2022-12-22T10:52:33.193Z,22.85
2022-12-22T10:54:34.160Z,26.85
2022-12-22T10:56:34.339Z,39.15
2022-12-22T10:58:32.595Z,34.50
2022-12-22T11:00:33.043Z,24.05
2022-12-22T11:02:35.444Z,31.33
2022-12-22T11:04:33.608Z,36.97
2022-12-22T11:06:31.883Z,36.58
2022-12-22T11:08:32.047Z,33.17
2022-12-22T11:10:37.835Z,35.25
2022-12-22T11:12:48.684Z,37.97
2022-12-22T11:14:55.362Z,28.05
2022-12-22T11:17:02.860Z,37.80
2022-12-22T11:19:13.559Z,22.58
2022-12-22T11:21:24.234Z,25.55
2022-12-22T11:23:32.152Z,36.83
2022-12-22T11:25:38.121Z,24.63
2022-12-22T11:27:46.346Z,29.80
2022-12-22T11:30:05.320Z,34.75
2022-12-22T11:32:24.512Z,30.85
2022-12-22T11:34:42.176Z,31.13
2022-12-22T11:36:55.554Z,31.02
2022-12-22T11:38:59.920Z,39.88
2022-12-22T11:43:22.389Z,29.45
2022-12-22T11:45:43.126Z,20.70
2022-12-22T11:48:00.298Z,23.67
2022-12-22T11:51:01.813Z,29.67
2022-12-22T11:52:58.120Z,23.92
2022-12-22T11:55:27.212Z,28.77
2022-12-22T11:57:35.784Z,52.63
2022-12-22T11:59:46.344Z,33.78
2022-12-22T12:02:04.185Z,30.60
2022-12-22T12:04:29.278Z,39.55
2022-12-22T12:06:51.577Z,34.72
2022-12-22T12:09:04.328Z,28.33
2022-12-22T12:11:18.475Z,28.40
2022-12-22T12:13:33.073Z,32.00
2022-12-22T12:15:39.707Z,35.33
2022-12-22T12:17:51.621Z,33.30
2022-12-22T12:20:09.589Z,28.60
2022-12-22T12:22:15.650Z,28.00
2022-12-22T12:24:29.804Z,36.35
2022-12-22T12:26:32.545Z,38.85
2022-12-22T12:28:43.493Z,36.17
2022-12-22T12:30:52.265Z,30.17
2022-12-22T12:32:56.489Z,36.60
2022-12-22T12:35:06.401Z,38.22
2022-12-22T12:37:15.000Z,34.22
2022-12-22T12:39:20.883Z,29.85
2022-12-22T12:41:25.773Z,32.80
2022-12-22T12:43:25.223Z,43.60
2022-12-22T12:45:39.857Z,24.67
2022-12-22T12:47:38.225Z,22.65
2022-12-22T12:49:58.343Z,32.67
2022-12-22T12:51:58.013Z,34.97
2022-12-22T12:54:24.520Z,34.53
2022-12-22T12:57:00.129Z,35.35
2022-12-22T13:00:59.787Z,31.27
2022-12-22T13:02:58.976Z,38.38
2022-12-22T13:05:29.873Z,36.60
2022-12-22T13:08:05.548Z,26.67
2022-12-22T13:10:21.119Z,35.70
2022-12-22T13:12:35.563Z,26.52
2022-12-22T13:15:01.576Z,37.05
2022-12-22T13:17:29.431Z,36.67
2022-12-22T13:19:28.260Z,29.13
2022-12-22T13:26:18.622Z,30.77
2022-12-22T13:28:19.282Z,36.25
2022-12-22T13:30:21.576Z,35.33
2022-12-22T13:32:27.299Z,76.88
2022-12-22T13:35:04.853Z,29.95
2022-12-22T13:37:03.870Z,24.55
2022-12-22T13:39:03.154Z,28.20
2022-12-22T13:41:04.699Z,34.47
2022-12-22T13:43:06.371Z,31.60
2022-12-22T13:45:06.724Z,33.15
2022-12-22T13:47:12.681Z,28.38
2022-12-22T13:49:35.956Z,33.33
2022-12-22T13:51:37.700Z,18.92
2022-12-22T13:55:58.854Z,35.95
2022-12-22T13:58:00.768Z,28.60
2022-12-22T13:59:58.979Z,38.00
2022-12-22T14:02:03.670Z,54.83
2022-12-22T14:04:07.933Z,26.38
2022-12-22T14:06:20.660Z,26.83
2022-12-22T14:08:23.783Z,39.60
2022-12-22T14:10:28.061Z,33.47
2022-12-22T14:12:28.940Z,25.10
2022-12-22T14:14:29.863Z,25.30
2022-12-22T14:16:28.252Z,31.83
2022-12-22T14:18:27.783Z,46.65
2022-12-22T14:20:30.510Z,28.05
2022-12-22T14:22:32.327Z,21.88
2022-12-22T14:24:38.463Z,24.90
2022-12-22T14:26:37.648Z,24.27
2022-12-22T14:28:43.300Z,22.48
2022-12-22T14:30:47.198Z,31.13
2022-12-22T14:32:54.062Z,23.00
2022-12-22T14:34:55.358Z,24.42
2022-12-22T14:36:55.238Z,21.13
2022-12-22T14:38:55.027Z,22.90
2022-12-22T14:40:57.532Z,74.18
2022-12-22T14:42:56.709Z,33.20
2022-12-22T14:44:55.043Z,30.30
2022-12-22T14:47:16.205Z,57.70
2022-12-22T14:49:20.467Z,37.13
2022-12-22T14:51:20.045Z,24.02
2022-12-22T14:53:25.830Z,37.30
2022-12-22T14:55:28.708Z,31.70
2022-12-22T14:57:33.631Z,30.83
2022-12-22T14:59:32.545Z,22.50
2022-12-22T15:01:30.819Z,33.08
2022-12-22T15:03:32.542Z,21.48
2022-12-22T15:05:35.516Z,22.60
2022-12-22T15:08:06.779Z,22.90
2022-12-22T15:10:17.524Z,30.33
2022-12-22T15:12:19.005Z,37.65
2022-12-22T15:14:20.252Z,18.65
2022-12-22T15:16:21.044Z,34.10
2022-12-22T15:18:25.632Z,33.28
2022-12-22T15:20:26.219Z,23.50
2022-12-22T15:22:25.465Z,21.92
2022-12-22T15:24:24.028Z,19.33
2022-12-22T15:26:23.650Z,32.42
2022-12-22T15:28:21.796Z,29.83
2022-12-22T15:30:27.198Z,19.85
2022-12-22T15:32:27.208Z,21.10
2022-12-22T15:34:29.844Z,22.35
2022-12-22T15:36:28.060Z,20.08
2022-12-22T15:38:26.740Z,12.85
2022-12-22T15:40:26.574Z,24.27
2022-12-22T15:42:26.089Z,22.52
2022-12-22T15:44:24.203Z,133.88
2022-12-22T15:46:22.561Z,99.20
2022-12-22T15:48:26.559Z,43.25
2022-12-22T15:50:33.581Z,42.95
2022-12-22T15:52:36.639Z,31.38
2022-12-22T15:54:34.978Z,31.35
2022-12-22T15:56:34.252Z,32.40
2022-12-22T15:58:37.310Z,26.45
2022-12-22T16:00:35.549Z,26.77
2022-12-22T16:02:34.008Z,30.88
2022-12-22T16:04:32.280Z,37.78
2022-12-22T16:06:31.901Z,27.58
2022-12-22T16:08:32.906Z,26.17
2022-12-22T16:10:33.794Z,31.73
2022-12-22T16:12:32.780Z,28.08
2022-12-22T16:14:38.865Z,30.48
2022-12-22T16:16:41.818Z,42.30
2022-12-22T16:18:40.276Z,38.42
2022-12-22T16:20:41.760Z,25.88
2022-12-22T16:22:42.501Z,37.22
2022-12-22T16:24:46.147Z,35.95
2022-12-22T16:26:44.615Z,39.47
2022-12-22T16:28:43.182Z,24.42
2022-12-22T16:30:42.885Z,32.72
2022-12-22T16:32:42.352Z,34.17
2022-12-22T16:34:40.514Z,45.22
2022-12-22T16:36:38.834Z,35.08
2022-12-22T16:38:37.046Z,47.20
2022-12-22T16:40:41.242Z,39.30
2022-12-22T16:44:59.812Z,55.45
2022-12-22T16:47:00.314Z,32.78
2022-12-22T16:49:01.312Z,76.60
2022-12-22T16:50:59.924Z,50.90
2022-12-22T16:52:58.262Z,45.60
2022-12-22T16:54:56.280Z,37.58
2022-12-22T16:56:54.910Z,47.88
2022-12-22T16:58:53.564Z,46.28
2022-12-22T17:00:52.043Z,62.05
2022-12-22T17:02:54.826Z,54.45
2022-12-22T17:04:55.401Z,58.53
2022-12-22T17:06:56.735Z,50.20
2022-12-22T17:08:55.165Z,48.90
2022-12-22T17:10:55.162Z,49.53
2022-12-22T17:12:57.262Z,43.35
2022-12-22T17:15:00.374Z,48.25
2022-12-22T17:16:58.692Z,56.70
2022-12-22T17:18:58.237Z,57.25
2022-12-22T17:20:58.692Z,66.50
2022-12-22T17:23:00.120Z,52.50
2022-12-22T17:25:03.520Z,61.28
2022-12-22T17:27:06.742Z,53.60
2022-12-22T17:29:05.690Z,53.47
2022-12-22T17:31:04.052Z,56.65
2022-12-22T17:33:02.383Z,78.80
2022-12-22T17:35:02.611Z,65.93
2022-12-22T17:37:01.132Z,60.08
2022-12-22T17:38:59.920Z,59.97
2022-12-22T17:40:58.262Z,52.78
2022-12-22T17:42:56.805Z,55.95
2022-12-22T17:44:55.044Z,71.47
2022-12-22T17:46:53.398Z,47.67
2022-12-22T17:48:52.169Z,57.80
2022-12-22T17:50:51.787Z,61.53
2022-12-22T17:52:50.916Z,48.78
2022-12-22T17:54:51.686Z,60.05
2022-12-22T17:56:49.855Z,44.05
2022-12-22T17:58:48.234Z,49.13
2022-12-22T18:00:46.656Z,47.53
2022-12-22T18:02:45.090Z,67.40
2022-12-22T18:04:43.456Z,77.68
2022-12-22T18:06:44.396Z,48.83
2022-12-22T18:08:42.883Z,47.50
2022-12-22T18:10:41.420Z,67.15
2022-12-22T18:12:39.637Z,52.65
2022-12-22T18:14:37.953Z,71.05
2022-12-22T18:16:36.308Z,50.08
2022-12-22T18:18:35.012Z,56.65
2022-12-22T18:20:33.782Z,64.50
2022-12-22T18:22:34.375Z,73.78
2022-12-22T18:24:32.822Z,67.40
2022-12-22T18:26:32.314Z,57.40
2022-12-22T18:28:30.686Z,66.90
2022-12-22T18:30:32.419Z,72.85
2022-12-22T18:32:30.709Z,78.72
2022-12-22T18:34:29.011Z,64.13
2022-12-22T18:36:31.974Z,72.40
2022-12-22T18:38:35.124Z,79.65
2022-12-22T18:40:35.060Z,71.15
2022-12-22T18:42:34.839Z,75.35
2022-12-22T18:44:33.004Z,71.25
2022-12-22T18:46:31.288Z,71.38
2022-12-22T18:48:29.569Z,56.85
2022-12-22T18:50:30.571Z,49.45
2022-12-22T18:52:29.585Z,32.10
2022-12-22T18:54:36.850Z,44.75
2022-12-22T18:56:34.971Z,44.88
2022-12-22T18:58:33.467Z,59.50
2022-12-22T19:00:37.671Z,60.35
2022-12-22T19:02:36.315Z,48.75
2022-12-22T19:04:35.078Z,44.55
2022-12-22T19:06:33.472Z,43.92
2022-12-22T19:08:31.966Z,60.90
2022-12-22T19:10:38.747Z,64.50
2022-12-22T19:12:37.273Z,66.32
2022-12-22T19:14:36.088Z,70.65
2022-12-22T19:16:34.452Z,64.10
2022-12-22T19:18:33.067Z,50.03
2022-12-22T19:20:31.748Z,52.55
2022-12-22T19:22:30.012Z,65.10
2022-12-22T19:24:28.442Z,58.88
2022-12-22T19:26:31.167Z,55.13
2022-12-22T19:28:33.244Z,57.42
2022-12-22T19:30:31.859Z,52.13
2022-12-22T19:32:31.970Z,75.25
2022-12-22T19:34:30.792Z,53.72
2022-12-22T19:36:30.793Z,65.38
2022-12-22T19:38:30.603Z,60.25
2022-12-22T19:40:30.972Z,84.65
2022-12-22T19:42:30.909Z,71.97
2022-12-22T19:44:31.614Z,54.95
2022-12-22T19:46:33.936Z,66.25
2022-12-22T19:48:32.448Z,56.92
2022-12-22T19:50:32.508Z,95.68
2022-12-22T19:52:30.878Z,65.35
2022-12-22T19:54:29.306Z,92.63
2022-12-22T19:56:29.829Z,65.53
2022-12-22T19:58:37.346Z,87.72
2022-12-22T20:00:35.844Z,99.78
2022-12-22T20:02:34.634Z,85.20
2022-12-22T20:04:33.100Z,85.72
2022-12-22T20:06:31.430Z,72.78
2022-12-22T20:08:30.084Z,83.25
2022-12-22T20:10:30.176Z,88.45
2022-12-22T20:12:32.378Z,93.22
2022-12-22T20:14:32.207Z,70.25
2022-12-22T20:16:30.356Z,85.32
2022-12-22T20:18:30.578Z,94.20
2022-12-22T20:20:33.808Z,80.68
2022-12-22T20:22:32.000Z,76.22
2022-12-22T20:24:31.482Z,78.55
2022-12-22T20:26:29.963Z,84.70
2022-12-22T20:28:30.960Z,87.32
2022-12-22T20:30:33.817Z,49.10
2022-12-22T20:32:32.019Z,52.63
2022-12-22T20:34:30.299Z,67.82
2022-12-22T20:36:31.988Z,82.97
2022-12-22T20:38:34.218Z,60.75
2022-12-22T20:40:33.583Z,71.18
2022-12-22T20:42:31.754Z,62.20
2022-12-22T20:44:30.085Z,70.47
2022-12-22T20:46:30.831Z,78.22
2022-12-22T20:48:34.562Z,60.10
2022-12-22T20:50:33.985Z,58.13
2022-12-22T20:52:32.190Z,64.70
2022-12-22T20:54:30.616Z,61.10
2022-12-22T20:56:33.102Z,71.03
2022-12-22T20:58:38.825Z,63.53
2022-12-22T21:00:37.047Z,101.55
2022-12-22T21:02:36.814Z,69.32
2022-12-22T21:04:35.419Z,80.60
2022-12-22T21:06:39.097Z,98.72
2022-12-22T21:08:37.269Z,61.42
2022-12-22T21:10:35.565Z,73.85
2022-12-22T21:12:33.906Z,84.20
2022-12-22T21:14:32.022Z,91.93
2022-12-22T21:16:34.383Z,81.63
2022-12-22T21:18:34.791Z,82.88
2022-12-22T21:20:35.550Z,84.22
2022-12-22T21:22:33.940Z,67.65
2022-12-22T21:24:32.222Z,72.63
2022-12-22T21:26:33.793Z,85.00
2022-12-22T21:28:36.008Z,66.22
2022-12-22T21:30:34.431Z,68.25
2022-12-22T21:32:32.677Z,83.97
2022-12-22T21:34:32.327Z,68.63
2022-12-22T21:36:33.439Z,62.08
2022-12-22T21:38:34.349Z,77.30
2022-12-22T21:40:33.573Z,68.05
2022-12-22T21:42:31.789Z,72.32
2022-12-22T21:44:30.905Z,78.80
2022-12-22T21:46:29.125Z,78.93
2022-12-22T21:48:27.368Z,91.40
2022-12-22T21:50:30.754Z,71.57
2022-12-22T21:52:28.927Z,76.70
2022-12-22T21:54:27.629Z,71.13
2022-12-22T21:56:25.772Z,66.60
2022-12-22T21:58:24.081Z,69.53
2022-12-22T22:00:23.674Z,64.57
2022-12-22T22:02:21.971Z,84.13
2022-12-22T22:04:20.522Z,55.42
2022-12-22T22:06:20.093Z,51.10
2022-12-22T22:08:18.404Z,42.95
2022-12-22T22:10:17.586Z,50.47
2022-12-22T22:12:33.823Z,55.92
2022-12-22T22:14:32.070Z,52.75
2022-12-22T22:16:30.328Z,45.38
2022-12-22T22:18:28.746Z,44.40
2022-12-22T22:20:29.453Z,37.15
2022-12-22T22:22:28.989Z,26.17
2022-12-22T22:24:27.139Z,36.28
2022-12-22T22:26:25.430Z,61.20
2022-12-22T22:28:23.627Z,32.90
2022-12-22T22:30:24.855Z,34.80
2022-12-22T22:32:23.174Z,37.05
2022-12-22T22:34:21.414Z,36.40
2022-12-22T22:36:19.782Z,38.25
2022-12-22T22:38:19.462Z,38.00
2022-12-22T22:40:19.172Z,33.10
2022-12-22T22:42:17.469Z,44.20
2022-12-22T22:44:15.688Z,34.00
2022-12-22T22:46:14.303Z,32.53
2022-12-22T22:48:19.658Z,30.58
2022-12-22T22:50:19.015Z,32.17
2022-12-22T22:52:17.237Z,45.63
2022-12-22T22:54:16.760Z,32.85
2022-12-22T22:56:15.027Z,37.33
2022-12-22T22:58:13.279Z,29.83
2022-12-22T23:00:13.823Z,30.75
2022-12-22T23:02:12.160Z,40.15
2022-12-22T23:04:10.600Z,42.28
2022-12-22T23:06:12.158Z,28.55
2022-12-22T23:08:10.397Z,32.35
2022-12-22T23:10:11.080Z,31.95
2022-12-22T23:12:09.311Z,29.45
2022-12-22T23:14:07.659Z,37.60
2022-12-22T23:16:06.633Z,31.95
2022-12-22T23:18:05.069Z,33.63
2022-12-22T23:20:03.786Z,48.65
2022-12-22T23:22:02.369Z,30.10
2022-12-22T23:24:00.577Z,42.25
2022-12-22T23:26:00.408Z,44.08
2022-12-22T23:27:58.758Z,30.52
2022-12-22T23:29:56.893Z,34.60
2022-12-22T23:31:55.155Z,33.92
2022-12-22T23:33:53.462Z,27.00
2022-12-22T23:35:52.480Z,38.25
2022-12-22T23:37:50.695Z,30.27
2022-12-22T23:39:48.870Z,47.47
2022-12-22T23:41:48.529Z,34.67
2022-12-22T23:43:46.823Z,34.15
2022-12-22T23:45:45.179Z,36.97
2022-12-22T23:47:43.399Z,31.88
2022-12-22T23:49:41.576Z,36.22
2022-12-22T23:51:40.020Z,34.80
2022-12-22T23:53:38.942Z,45.92
2022-12-22T23:55:37.137Z,26.88
2022-12-22T23:57:36.866Z,49.95
2022-12-22T23:59:35.156Z,35.47
